createdAt,value
2022-09-15T00:01:57.686Z,12.34
2022-09-15T00:04:24.159Z,12.39
2022-09-15T00:06:50.659Z,12.42
2022-09-15T00:09:17.128Z,12.44
2022-09-15T00:11:43.724Z,12.46
2022-09-15T00:14:10.243Z,12.46
2022-09-15T00:16:37.123Z,12.47
2022-09-15T00:19:04.350Z,12.49
2022-09-15T00:21:34.158Z,12.52
2022-09-15T00:24:03.045Z,12.53
2022-09-15T00:26:31.706Z,12.59
2022-09-15T00:28:59.747Z,12.64
2022-09-15T00:31:28.516Z,12.67
2022-09-15T00:33:57.147Z,12.69
2022-09-15T00:36:24.876Z,12.73
2022-09-15T00:38:51.691Z,12.72
2022-09-15T00:41:20.986Z,12.73
2022-09-15T00:43:55.181Z,12.77
2022-09-15T00:46:24.844Z,12.78
2022-09-15T00:48:57.588Z,12.73
2022-09-15T00:51:51.050Z,12.69
2022-09-15T00:54:22.624Z,12.67
2022-09-15T00:56:53.169Z,12.68
2022-09-15T00:59:24.363Z,12.74
2022-09-15T01:02:01.128Z,12.78
2022-09-15T01:04:27.683Z,12.79
2022-09-15T01:07:00.298Z,12.81
2022-09-15T01:09:36.363Z,12.79
2022-09-15T01:12:03.742Z,12.82
2022-09-15T01:14:30.236Z,12.83
2022-09-15T01:17:19.010Z,12.86
2022-09-15T01:20:04.082Z,12.89
2022-09-15T01:22:41.517Z,12.87
2022-09-15T01:26:05.050Z,12.94
2022-09-15T01:28:58.876Z,12.95
2022-09-15T01:32:05.070Z,12.96
2022-09-15T01:34:40.465Z,12.99
2022-09-15T01:37:15.334Z,13.01
2022-09-15T01:39:45.005Z,13.00
2022-09-15T01:42:15.338Z,12.99
2022-09-15T01:45:02.520Z,12.97
2022-09-15T01:47:30.344Z,12.96
2022-09-15T01:50:02.977Z,12.95
2022-09-15T01:52:30.708Z,12.91
2022-09-15T01:55:02.262Z,12.93
2022-09-15T01:57:28.853Z,12.90
2022-09-15T01:59:56.415Z,12.89
2022-09-15T02:02:33.343Z,12.90
2022-09-15T02:05:06.208Z,12.89
2022-09-15T02:07:35.459Z,12.89
2022-09-15T02:10:13.555Z,12.89
2022-09-15T02:12:54.578Z,12.93
2022-09-15T02:15:33.403Z,12.95
2022-09-15T02:18:02.608Z,12.97
2022-09-15T02:20:33.088Z,12.94
2022-09-15T02:23:08.452Z,12.89
2022-09-15T02:25:41.416Z,12.81
2022-09-15T02:28:11.624Z,12.75
2022-09-15T02:30:42.003Z,12.74
2022-09-15T02:33:14.090Z,12.72
2022-09-15T02:35:42.254Z,12.71
2022-09-15T02:38:10.597Z,12.72
2022-09-15T02:40:41.236Z,12.70
2022-09-15T02:43:12.408Z,12.71
2022-09-15T02:45:39.430Z,12.66
2022-09-15T02:48:06.309Z,12.62
2022-09-15T02:50:32.782Z,12.58
2022-09-15T02:52:59.270Z,12.52
2022-09-15T02:55:29.022Z,12.46
2022-09-15T02:57:59.265Z,12.41
2022-09-15T03:00:27.096Z,12.33
2022-09-15T03:02:54.814Z,12.26
2022-09-15T03:05:24.949Z,12.27
2022-09-15T03:07:52.199Z,12.23
2022-09-15T03:10:19.112Z,12.19
2022-09-15T03:12:48.354Z,12.22
2022-09-15T03:15:17.660Z,12.30
2022-09-15T03:17:46.320Z,12.38
2022-09-15T03:20:16.941Z,12.46
2022-09-15T03:22:43.964Z,12.52
2022-09-15T03:25:11.275Z,12.59
2022-09-15T03:27:38.370Z,12.64
2022-09-15T03:30:06.707Z,12.72
2022-09-15T03:32:33.257Z,12.77
2022-09-15T03:34:59.723Z,12.86
2022-09-15T03:37:26.652Z,12.96
2022-09-15T03:39:53.212Z,13.01
2022-09-15T03:42:20.345Z,13.06
2022-09-15T03:44:46.887Z,13.12
2022-09-15T03:47:13.501Z,13.19
2022-09-15T03:49:39.979Z,13.21
2022-09-15T03:52:06.429Z,13.27
2022-09-15T03:54:32.915Z,13.30
2022-09-15T03:56:59.462Z,13.32
2022-09-15T03:59:25.970Z,13.38
2022-09-15T04:01:52.665Z,13.41
2022-09-15T04:04:19.242Z,13.44
2022-09-15T04:06:45.771Z,13.45
2022-09-15T04:09:12.278Z,13.47
2022-09-15T04:11:39.647Z,13.50
2022-09-15T04:14:06.339Z,13.54
2022-09-15T04:16:33.804Z,13.56
2022-09-15T04:19:00.439Z,13.58
2022-09-15T04:21:26.975Z,13.57
2022-09-15T04:23:54.631Z,13.60
2022-09-15T04:26:34.169Z,13.59
2022-09-15T04:29:04.619Z,13.59
2022-09-15T04:31:32.151Z,13.56
2022-09-15T04:33:59.390Z,13.57
2022-09-15T04:36:28.250Z,13.58
2022-09-15T04:38:55.371Z,13.50
2022-09-15T04:41:22.533Z,13.42
2022-09-15T04:43:49.565Z,13.26
2022-09-15T04:46:16.906Z,13.13
2022-09-15T04:48:45.501Z,13.00
2022-09-15T04:51:14.896Z,12.92
2022-09-15T04:53:41.995Z,12.82
2022-09-15T04:56:11.987Z,12.78
2022-09-15T04:58:46.558Z,12.78
2022-09-15T05:01:15.971Z,12.82
2022-09-15T05:03:43.046Z,12.87
2022-09-15T05:06:12.331Z,12.91
2022-09-15T05:08:39.398Z,12.91
2022-09-15T05:11:09.019Z,12.94
2022-09-15T05:13:36.844Z,12.94
2022-09-15T05:16:05.885Z,12.94
2022-09-15T05:18:33.183Z,12.91
2022-09-15T05:21:00.957Z,12.87
2022-09-15T05:23:28.475Z,12.86
2022-09-15T05:25:59.340Z,12.87
2022-09-15T05:28:26.129Z,12.94
2022-09-15T05:30:54.281Z,13.00
2022-09-15T05:33:22.351Z,13.04
2022-09-15T05:35:52.193Z,13.06
2022-09-15T05:38:18.774Z,13.09
2022-09-15T05:40:45.488Z,13.18
2022-09-15T05:43:12.078Z,13.20
2022-09-15T05:45:38.532Z,13.22
2022-09-15T05:48:05.111Z,13.27
2022-09-15T05:50:31.825Z,13.26
2022-09-15T05:52:58.272Z,13.31
2022-09-15T05:55:24.821Z,13.32
2022-09-15T05:57:51.325Z,13.35
2022-09-15T06:00:19.003Z,13.37
2022-09-15T06:02:45.517Z,13.38
2022-09-15T06:05:12.175Z,13.41
2022-09-15T06:07:39.217Z,13.45
2022-09-15T06:10:06.526Z,13.53
2022-09-15T06:12:33.004Z,13.57
2022-09-15T06:14:59.821Z,13.60
2022-09-15T06:17:26.486Z,13.63
2022-09-15T06:19:53.119Z,13.69
2022-09-15T06:22:19.600Z,13.73
2022-09-15T06:24:46.151Z,13.76
2022-09-15T06:27:12.660Z,13.83
2022-09-15T06:29:39.139Z,13.87
2022-09-15T06:32:05.780Z,13.94
2022-09-15T06:34:32.891Z,13.99
2022-09-15T06:36:59.934Z,14.07
2022-09-15T06:39:27.179Z,14.09
2022-09-15T06:42:02.202Z,14.13
2022-09-15T06:44:29.788Z,14.12
2022-09-15T06:46:56.252Z,14.17
2022-09-15T06:49:22.950Z,14.24
2022-09-15T06:51:49.524Z,14.32
2022-09-15T06:54:16.224Z,14.30
2022-09-15T06:56:43.447Z,14.40
2022-09-15T06:59:15.345Z,14.48
2022-09-15T07:01:42.581Z,14.55
2022-09-15T07:04:09.987Z,14.62
2022-09-15T07:06:38.619Z,14.68
2022-09-15T07:09:06.006Z,14.66
2022-09-15T07:11:33.132Z,14.63
2022-09-15T07:13:59.650Z,14.65
2022-09-15T07:16:26.268Z,14.71
2022-09-15T07:18:56.057Z,14.79
2022-09-15T07:21:23.353Z,14.78
2022-09-15T07:23:50.406Z,14.80
2022-09-15T07:26:28.375Z,14.86
2022-09-15T07:28:57.349Z,14.91
2022-09-15T07:31:26.029Z,14.87
2022-09-15T07:33:53.242Z,14.90
2022-09-15T07:36:19.994Z,15.07
2022-09-15T07:38:48.730Z,15.39
2022-09-15T07:41:23.668Z,15.62
2022-09-15T07:43:52.236Z,15.70
2022-09-15T07:46:20.367Z,15.87
2022-09-15T07:48:48.301Z,15.81
2022-09-15T07:51:15.943Z,15.92
2022-09-15T07:53:43.907Z,15.95
2022-09-15T07:56:10.662Z,16.02
2022-09-15T07:58:37.107Z,16.10
2022-09-15T08:01:06.066Z,16.31
2022-09-15T08:03:32.921Z,16.56
2022-09-15T08:06:00.282Z,16.67
2022-09-15T08:08:26.952Z,16.70
2022-09-15T08:10:53.763Z,16.70
2022-09-15T08:13:20.383Z,16.91
2022-09-15T08:15:47.932Z,16.99
2022-09-15T08:18:15.407Z,17.02
2022-09-15T08:20:42.631Z,17.18
2022-09-15T08:23:11.063Z,17.26
2022-09-15T08:25:40.510Z,17.09
2022-09-15T08:28:07.157Z,16.89
2022-09-15T08:30:33.779Z,16.82
2022-09-15T08:33:00.238Z,16.79
2022-09-15T08:35:26.775Z,16.59
2022-09-15T08:37:55.022Z,16.61
2022-09-15T08:40:27.454Z,16.72
2022-09-15T08:42:57.980Z,16.79
2022-09-15T08:45:32.532Z,16.86
2022-09-15T08:48:03.305Z,16.89
2022-09-15T08:50:35.804Z,16.85
2022-09-15T08:53:11.911Z,16.85
2022-09-15T08:55:55.066Z,16.76
2022-09-15T08:58:37.663Z,16.24
2022-09-15T09:01:10.456Z,16.13
2022-09-15T09:03:49.336Z,16.03
2022-09-15T09:06:48.079Z,16.08
2022-09-15T09:09:27.895Z,16.10
2022-09-15T09:12:13.229Z,15.99
2022-09-15T09:15:07.317Z,15.82
2022-09-15T09:18:04.126Z,15.87
2022-09-15T09:20:52.657Z,15.75
2022-09-15T09:23:23.927Z,15.71
2022-09-15T09:25:52.158Z,15.67
2022-09-15T09:28:32.210Z,15.70
2022-09-15T09:31:08.295Z,15.77
2022-09-15T09:33:47.611Z,15.85
2022-09-15T09:36:14.698Z,16.01
2022-09-15T09:38:43.932Z,16.11
2022-09-15T09:41:17.122Z,16.25
2022-09-15T09:43:47.396Z,16.26
2022-09-15T09:46:16.649Z,16.21
2022-09-15T09:48:47.631Z,16.24
2022-09-15T09:51:32.037Z,16.25
2022-09-15T09:54:20.808Z,16.39
2022-09-15T09:56:53.633Z,16.62
2022-09-15T09:59:40.395Z,16.85
2022-09-15T10:02:18.917Z,17.08
2022-09-15T10:04:48.330Z,17.10
2022-09-15T10:07:18.615Z,17.17
2022-09-15T10:09:52.532Z,17.22
2022-09-15T10:12:39.748Z,17.26
2022-09-15T10:15:20.211Z,17.30
2022-09-15T10:17:49.607Z,17.53
2022-09-15T10:20:28.227Z,17.96
2022-09-15T10:23:19.089Z,18.18
2022-09-15T10:26:01.342Z,18.52
2022-09-15T10:28:28.626Z,19.12
2022-09-15T10:31:15.761Z,19.79
2022-09-15T10:33:47.701Z,19.74
2022-09-15T10:36:22.492Z,20.23
2022-09-15T10:38:54.723Z,20.99
2022-09-15T10:41:37.674Z,21.15
2022-09-15T10:44:38.311Z,20.97
2022-09-15T10:47:07.603Z,21.50
2022-09-15T10:49:52.100Z,22.00
2022-09-15T10:52:25.719Z,22.64
2022-09-15T10:55:15.620Z,22.77
2022-09-15T10:58:06.236Z,22.46
2022-09-15T11:01:11.327Z,21.83
2022-09-15T11:04:15.357Z,21.85
2022-09-15T11:06:50.501Z,22.69
2022-09-15T11:09:26.229Z,23.05
2022-09-15T11:12:04.966Z,23.59
2022-09-15T11:14:56.457Z,24.00
2022-09-15T11:17:42.505Z,23.20
2022-09-15T11:20:32.580Z,22.29
2022-09-15T11:23:11.511Z,22.24
2022-09-15T11:25:46.799Z,22.82
2022-09-15T11:28:32.980Z,23.22
2022-09-15T11:31:02.457Z,23.34
2022-09-15T11:33:45.210Z,22.52
2022-09-15T11:36:23.004Z,21.55
2022-09-15T11:39:13.170Z,20.75
2022-09-15T11:41:48.459Z,20.36
2022-09-15T11:44:16.638Z,21.41
2022-09-15T11:47:02.679Z,21.92
2022-09-15T11:49:44.944Z,21.84
2022-09-15T11:52:24.810Z,21.84
2022-09-15T11:55:02.727Z,22.07
2022-09-15T11:57:38.980Z,22.19
2022-09-15T12:00:13.177Z,22.04
2022-09-15T12:02:49.187Z,21.74
2022-09-15T12:05:22.218Z,21.73
2022-09-15T12:07:56.040Z,21.72
2022-09-15T12:10:39.869Z,21.91
2022-09-15T12:13:10.130Z,21.90
2022-09-15T12:15:37.746Z,22.02
2022-09-15T12:18:43.861Z,21.97
2022-09-15T12:21:19.693Z,21.21
2022-09-15T12:24:02.949Z,20.80
2022-09-15T12:26:33.139Z,20.69
2022-09-15T12:29:04.932Z,20.51
2022-09-15T12:31:31.477Z,20.38
2022-09-15T12:33:57.926Z,19.92
2022-09-15T12:36:51.316Z,19.65
2022-09-15T12:39:32.296Z,19.24
2022-09-15T12:42:10.935Z,18.76
2022-09-15T12:44:47.965Z,18.55
2022-09-15T12:47:29.641Z,18.42
2022-09-15T12:50:04.878Z,18.20
2022-09-15T12:52:31.979Z,17.98
2022-09-15T12:55:02.665Z,17.81
2022-09-15T12:57:33.529Z,17.73
2022-09-15T13:00:35.587Z,17.71
2022-09-15T13:03:03.927Z,17.77
2022-09-15T13:05:42.379Z,17.84
2022-09-15T13:08:24.818Z,18.01
2022-09-15T13:11:14.137Z,18.12
2022-09-15T13:14:14.857Z,18.13
2022-09-15T13:16:41.419Z,17.97
2022-09-15T13:19:24.183Z,17.74
2022-09-15T13:22:12.213Z,17.65
2022-09-15T13:25:01.504Z,17.54
2022-09-15T13:27:36.359Z,17.70
2022-09-15T13:30:24.342Z,17.86
2022-09-15T13:33:03.671Z,17.93
2022-09-15T13:35:56.511Z,18.14
2022-09-15T13:38:47.408Z,18.23
2022-09-15T13:42:04.537Z,18.30
2022-09-15T13:44:54.501Z,18.36
2022-09-15T13:47:38.262Z,18.16
2022-09-15T13:50:04.636Z,18.55
2022-09-15T13:52:58.044Z,18.60
2022-09-15T13:55:28.033Z,18.93
2022-09-15T14:00:55.036Z,19.71
2022-09-15T14:03:37.106Z,19.97
2022-09-15T14:06:22.340Z,19.88
2022-09-15T14:08:53.711Z,19.41
2022-09-15T14:11:30.727Z,19.14
2022-09-15T14:14:00.738Z,19.38
2022-09-15T14:16:27.914Z,19.60
2022-09-15T14:18:57.693Z,19.40
2022-09-15T14:21:29.507Z,19.32
2022-09-15T14:23:58.599Z,19.44
2022-09-15T14:26:29.086Z,19.24
2022-09-15T14:29:06.788Z,19.05
2022-09-15T14:31:39.065Z,19.27
2022-09-15T14:34:09.759Z,19.45
2022-09-15T14:36:36.322Z,19.34
2022-09-15T14:39:12.805Z,19.52
2022-09-15T14:41:40.192Z,19.62
2022-09-15T14:45:54.494Z,19.63
2022-09-15T14:47:20.816Z,19.74
2022-09-15T14:49:47.749Z,20.14
2022-09-15T14:52:31.890Z,20.29
2022-09-15T14:55:02.594Z,20.43
2022-09-15T14:57:32.206Z,20.04
2022-09-15T15:00:07.099Z,19.58
2022-09-15T15:02:33.597Z,19.10
2022-09-15T15:05:31.974Z,18.65
2022-09-15T15:08:03.980Z,18.42
2022-09-15T15:10:35.680Z,18.27
2022-09-15T15:13:07.990Z,18.08
2022-09-15T15:15:37.958Z,17.89
2022-09-15T15:18:39.047Z,17.68
2022-09-15T15:21:26.654Z,17.53
2022-09-15T15:23:53.875Z,17.41
2022-09-15T15:26:28.474Z,17.29
2022-09-15T15:28:54.999Z,17.18
2022-09-15T15:31:25.071Z,17.11
2022-09-15T15:33:59.296Z,17.02
2022-09-15T15:36:28.546Z,16.95
2022-09-15T15:39:00.876Z,16.92
2022-09-15T15:41:29.611Z,16.84
2022-09-15T15:44:03.509Z,16.85
2022-09-15T15:46:53.435Z,16.85
2022-09-15T15:49:25.325Z,16.79
2022-09-15T15:51:55.269Z,16.83
2022-09-15T15:54:22.865Z,16.77
2022-09-15T15:56:49.717Z,16.76
2022-09-15T15:59:17.377Z,16.79
2022-09-15T16:01:45.108Z,16.78
2022-09-15T16:04:12.222Z,16.71
2022-09-15T16:06:39.497Z,16.67
2022-09-15T16:09:06.185Z,16.59
2022-09-15T16:11:32.831Z,16.47
2022-09-15T16:13:59.718Z,16.38
2022-09-15T16:16:27.586Z,16.30
2022-09-15T16:18:54.521Z,16.24
2022-09-15T16:21:28.959Z,16.14
2022-09-15T16:23:55.521Z,16.07
2022-09-15T16:26:24.149Z,15.99
2022-09-15T16:28:51.453Z,16.01
2022-09-15T16:31:17.974Z,15.97
2022-09-15T16:33:44.461Z,15.95
2022-09-15T16:36:18.097Z,15.96
2022-09-15T16:38:45.114Z,15.98
2022-09-15T16:41:17.564Z,15.99
2022-09-15T16:43:45.509Z,15.98
2022-09-15T16:46:13.418Z,16.01
2022-09-15T16:48:42.691Z,15.96
2022-09-15T16:51:31.636Z,15.88
2022-09-15T16:54:01.247Z,15.84
2022-09-15T16:56:28.502Z,15.77
2022-09-15T16:59:00.133Z,15.68
2022-09-15T17:01:27.466Z,15.65
2022-09-15T17:03:54.152Z,15.62
2022-09-15T17:06:22.081Z,15.55
2022-09-15T17:08:48.975Z,15.41
2022-09-15T17:11:18.478Z,15.32
2022-09-15T17:13:47.158Z,15.21
2022-09-15T17:16:15.737Z,15.14
2022-09-15T17:18:42.296Z,15.08
2022-09-15T17:21:12.369Z,15.05
2022-09-15T17:23:45.792Z,15.02
2022-09-15T17:26:17.271Z,15.04
2022-09-15T17:28:43.724Z,15.02
2022-09-15T17:31:19.387Z,15.03
2022-09-15T17:33:47.137Z,15.00
2022-09-15T17:36:13.626Z,14.96
2022-09-15T17:38:41.153Z,14.92
2022-09-15T17:41:16.487Z,14.89
2022-09-15T17:43:43.056Z,14.91
2022-09-15T17:46:09.668Z,14.94
2022-09-15T17:48:39.215Z,14.96
2022-09-15T17:51:07.248Z,14.95
2022-09-15T17:53:34.201Z,14.97
2022-09-15T17:56:00.958Z,14.94
2022-09-15T17:58:29.944Z,14.94
2022-09-15T18:00:57.497Z,14.94
2022-09-15T18:03:27.966Z,14.88
2022-09-15T18:05:59.200Z,14.89
2022-09-15T18:08:26.791Z,14.89
2022-09-15T18:10:53.826Z,14.90
2022-09-15T18:13:23.473Z,14.88
2022-09-15T18:15:50.668Z,14.89
2022-09-15T18:18:20.016Z,14.89
2022-09-15T18:20:46.922Z,14.89
2022-09-15T18:23:15.588Z,14.88
2022-09-15T18:25:43.105Z,14.89
2022-09-15T18:28:10.576Z,14.87
2022-09-15T18:30:41.811Z,14.85
2022-09-15T18:33:14.043Z,14.81
2022-09-15T18:35:41.315Z,14.86
2022-09-15T18:38:08.316Z,14.85
2022-09-15T18:40:34.818Z,14.83
2022-09-15T18:43:09.045Z,14.83
2022-09-15T18:45:35.580Z,14.78
2022-09-15T18:48:11.956Z,14.77
2022-09-15T18:50:40.313Z,14.74
2022-09-15T18:53:09.817Z,14.70
2022-09-15T18:55:36.414Z,14.65
2022-09-15T18:58:02.970Z,14.61
2022-09-15T19:00:29.887Z,14.60
2022-09-15T19:03:00.762Z,14.61
2022-09-15T19:05:28.983Z,14.57
2022-09-15T19:07:55.635Z,14.57
2022-09-15T19:10:23.078Z,14.54
2022-09-15T19:12:49.615Z,14.51
2022-09-15T19:15:16.713Z,14.49
2022-09-15T19:17:44.022Z,14.44
2022-09-15T19:20:14.226Z,14.43
2022-09-15T19:22:41.698Z,14.40
2022-09-15T19:25:09.745Z,14.42
2022-09-15T19:27:37.953Z,14.38
2022-09-15T19:30:05.649Z,14.41
2022-09-15T19:32:33.478Z,14.44
2022-09-15T19:35:00.009Z,14.43
2022-09-15T19:37:26.639Z,14.43
2022-09-15T19:39:53.408Z,14.41
2022-09-15T19:42:20.100Z,14.39
2022-09-15T19:44:47.918Z,14.39
2022-09-15T19:47:14.816Z,14.38
2022-09-15T19:49:41.315Z,14.38
2022-09-15T19:52:07.940Z,14.37
2022-09-15T19:54:34.662Z,14.38
2022-09-15T19:57:01.842Z,14.36
2022-09-15T19:59:31.396Z,14.39
2022-09-15T20:01:58.694Z,14.39
2022-09-15T20:07:09.243Z,14.23
2022-09-15T20:09:36.345Z,14.17
2022-09-15T20:12:03.430Z,14.09
2022-09-15T20:14:31.398Z,14.05
2022-09-15T20:17:00.972Z,14.08
2022-09-15T20:19:28.112Z,14.10
2022-09-15T20:21:54.598Z,14.13
2022-09-15T20:24:21.635Z,14.18
2022-09-15T20:26:48.457Z,14.23
2022-09-15T20:29:15.757Z,14.23
2022-09-15T20:31:42.547Z,14.23
2022-09-15T20:34:09.336Z,14.23
2022-09-15T20:36:38.813Z,14.19
2022-09-15T20:39:09.293Z,14.10
2022-09-15T20:41:36.063Z,14.10
2022-09-15T20:44:02.955Z,13.98
2022-09-15T20:46:31.254Z,13.90
2022-09-15T20:48:57.754Z,13.81
2022-09-15T20:51:26.780Z,13.68
2022-09-15T20:53:55.502Z,13.54
2022-09-15T20:56:25.487Z,13.43
2022-09-15T20:58:57.152Z,13.40
2022-09-15T21:01:43.577Z,13.35
2022-09-15T21:04:10.639Z,13.33
2022-09-15T21:06:37.353Z,13.22
2022-09-15T21:09:05.306Z,13.21
2022-09-15T21:11:31.881Z,13.16
2022-09-15T21:13:58.871Z,13.12
2022-09-15T21:16:27.498Z,13.06
2022-09-15T21:18:55.418Z,12.92
2022-09-15T21:21:29.839Z,12.79
2022-09-15T21:24:01.787Z,12.72
2022-09-15T21:26:30.466Z,12.65
2022-09-15T21:28:57.542Z,12.64
2022-09-15T21:31:26.242Z,12.57
2022-09-15T21:33:54.138Z,12.51
2022-09-15T21:36:23.235Z,12.46
2022-09-15T21:38:51.853Z,12.43
2022-09-15T21:41:22.950Z,12.42
2022-09-15T21:43:54.957Z,12.32
2022-09-15T21:46:24.352Z,12.23
2022-09-15T21:48:50.881Z,12.26
2022-09-15T21:51:23.535Z,12.20
2022-09-15T21:53:52.241Z,12.24
2022-09-15T21:56:19.059Z,12.21
2022-09-15T21:58:45.622Z,12.16
2022-09-15T22:01:23.723Z,12.16
2022-09-15T22:03:52.980Z,12.10
2022-09-15T22:06:21.569Z,12.09
2022-09-15T22:08:48.778Z,11.98
2022-09-15T22:11:15.326Z,12.05
2022-09-15T22:13:44.611Z,12.09
2022-09-15T22:16:14.346Z,12.13
2022-09-15T22:18:41.874Z,12.09
2022-09-15T22:21:11.326Z,12.09
2022-09-15T22:23:38.703Z,12.06
2022-09-15T22:26:08.095Z,12.00
2022-09-15T22:28:34.987Z,11.95
2022-09-15T22:31:04.615Z,11.98
2022-09-15T22:33:31.456Z,11.99
2022-09-15T22:35:58.692Z,12.02
2022-09-15T22:38:27.266Z,11.96
2022-09-15T22:40:53.786Z,11.93
2022-09-15T22:43:20.306Z,11.91
2022-09-15T22:45:47.036Z,11.89
2022-09-15T22:48:13.709Z,11.81
2022-09-15T22:50:40.199Z,11.73
2022-09-15T22:53:06.733Z,11.65
2022-09-15T22:55:33.224Z,11.63
2022-09-15T22:57:59.701Z,11.63
2022-09-15T23:00:27.137Z,11.65
2022-09-15T23:02:53.990Z,11.68
2022-09-15T23:05:20.512Z,11.62
2022-09-15T23:07:47.110Z,11.61
2022-09-15T23:10:13.588Z,11.62
2022-09-15T23:12:40.038Z,11.65
2022-09-15T23:15:07.752Z,11.66
2022-09-15T23:17:34.505Z,11.65
2022-09-15T23:20:01.440Z,11.66
2022-09-15T23:22:27.972Z,11.66
2022-09-15T23:24:54.425Z,11.71
2022-09-15T23:27:20.963Z,11.76
2022-09-15T23:29:47.538Z,11.76
2022-09-15T23:32:14.055Z,11.81
2022-09-15T23:34:40.518Z,11.83
2022-09-15T23:37:07.044Z,11.79
2022-09-15T23:39:33.531Z,11.79
2022-09-15T23:42:01.326Z,11.88
2022-09-15T23:44:27.812Z,11.98
2022-09-15T23:46:54.341Z,12.12
2022-09-15T23:49:20.884Z,12.24
2022-09-15T23:51:47.381Z,12.36
2022-09-15T23:54:14.025Z,12.44
2022-09-15T23:56:40.948Z,12.48
2022-09-15T23:59:07.455Z,12.54
